createdAt,value
2024-05-09T00:00:42.635Z,9.6600
2024-05-09T00:01:43.811Z,9.6825
2024-05-09T00:02:44.679Z,9.7300
2024-05-09T00:03:46.072Z,9.7738
2024-05-09T00:04:47.088Z,9.7935
2024-05-09T00:05:47.792Z,9.7642
2024-05-09T00:06:48.457Z,9.7332
2024-05-09T00:07:49.009Z,9.6851
2024-05-09T00:08:49.670Z,9.6232
2024-05-09T00:09:51.355Z,9.6045
2024-05-09T00:10:52.078Z,9.6461
2024-05-09T00:11:52.775Z,9.6403
2024-05-09T00:12:53.258Z,9.6905
2024-05-09T00:13:53.969Z,9.6905
2024-05-09T00:14:54.490Z,9.6675
2024-05-09T00:15:56.359Z,9.6542
2024-05-09T00:16:57.170Z,9.6510
2024-05-09T00:17:57.997Z,9.6403
2024-05-09T00:18:58.936Z,9.6125
2024-05-09T00:19:59.703Z,9.6264
2024-05-09T00:21:00.594Z,9.6120
2024-05-09T00:22:01.483Z,9.6034
2024-05-09T00:23:02.221Z,9.5869
2024-05-09T00:24:03.478Z,9.5730
2024-05-09T00:25:04.194Z,9.5756
2024-05-09T00:26:04.877Z,9.5639
2024-05-09T00:27:05.775Z,9.5308
2024-05-09T00:28:09.055Z,9.5361
2024-05-09T00:29:10.055Z,9.5420
2024-05-09T00:30:14.509Z,9.4395
2024-05-09T00:31:18.346Z,9.4416
2024-05-09T00:32:19.480Z,9.4667
2024-05-09T00:33:20.855Z,9.3962
2024-05-09T00:34:22.148Z,9.3684
2024-05-09T00:35:23.623Z,9.3748
2024-05-09T00:36:24.765Z,9.3941
2024-05-09T00:37:25.841Z,9.3743
2024-05-09T00:38:26.989Z,9.3658
2024-05-09T00:39:28.163Z,9.3770
2024-05-09T00:40:35.766Z,9.3241
2024-05-09T00:41:36.639Z,9.2766
2024-05-09T00:42:38.805Z,9.2541
2024-05-09T00:43:40.062Z,9.2931
2024-05-09T00:44:41.318Z,9.3519
2024-05-09T00:45:42.607Z,9.3909
2024-05-09T00:46:43.905Z,9.3545
2024-05-09T00:47:45.201Z,9.3439
2024-05-09T00:48:46.552Z,9.3695
2024-05-09T00:49:47.664Z,9.3946
2024-05-09T00:50:48.854Z,9.3802
2024-05-09T00:51:49.824Z,9.4218
2024-05-09T00:52:50.892Z,9.4395
2024-05-09T00:53:51.856Z,9.5110
2024-05-09T00:54:52.736Z,9.5030
2024-05-09T00:55:53.581Z,9.5367
2024-05-09T00:56:54.258Z,9.5393
2024-05-09T00:57:55.082Z,9.5559
2024-05-09T00:58:55.841Z,9.6093
2024-05-09T00:59:56.906Z,9.6066
2024-05-09T01:00:57.508Z,9.6184
2024-05-09T01:01:58.295Z,9.6323
2024-05-09T01:02:59.132Z,9.6461
2024-05-09T01:03:59.834Z,9.6627
2024-05-09T01:05:00.562Z,9.7129
2024-05-09T01:06:01.178Z,9.7530
2024-05-09T01:07:01.811Z,9.7700
2024-05-09T01:08:02.453Z,9.7903
2024-05-09T01:09:03.026Z,9.7877
2024-05-09T01:10:05.578Z,9.8186
2024-05-09T01:11:07.881Z,9.8389
2024-05-09T01:12:08.606Z,9.8608
2024-05-09T01:13:09.158Z,9.8913
2024-05-09T01:14:09.616Z,9.9025
2024-05-09T01:15:10.028Z,9.9196
2024-05-09T01:16:10.431Z,9.9420
2024-05-09T01:17:10.867Z,9.9815
2024-05-09T01:18:12.408Z,10.0066
2024-05-09T01:19:14.390Z,9.9981
2024-05-09T01:20:20.216Z,10.0205
2024-05-09T01:21:21.526Z,10.0141
2024-05-09T01:22:21.816Z,10.0259
2024-05-09T01:23:22.131Z,10.0339
2024-05-09T01:24:22.517Z,10.0344
2024-05-09T01:25:22.818Z,10.0371
2024-05-09T01:26:23.053Z,10.0483
2024-05-09T01:27:23.596Z,10.0542
2024-05-09T01:28:23.847Z,10.0451
2024-05-09T01:29:24.233Z,10.0675
2024-05-09T01:30:31.836Z,10.0430
2024-05-09T01:31:31.165Z,10.0622
2024-05-09T01:32:31.627Z,10.0622
2024-05-09T01:33:33.273Z,10.0622
2024-05-09T01:34:33.960Z,10.0675
2024-05-09T01:35:34.286Z,10.0430
2024-05-09T01:36:34.682Z,10.0729
2024-05-09T01:37:34.833Z,10.0787
2024-05-09T01:38:35.263Z,10.0900
2024-05-09T01:39:35.730Z,10.0670
2024-05-09T01:40:38.930Z,10.0702
2024-05-09T01:41:40.860Z,10.0958
2024-05-09T01:42:41.076Z,10.1076
2024-05-09T01:43:41.887Z,10.1209
2024-05-09T01:44:42.136Z,10.1407
2024-05-09T01:45:42.415Z,10.1428
2024-05-09T01:46:42.698Z,10.1487
2024-05-09T01:47:43.159Z,10.1460
2024-05-09T01:48:44.558Z,10.1466
2024-05-09T01:49:44.989Z,10.1434
2024-05-09T01:50:45.494Z,10.1316
2024-05-09T01:51:46.023Z,10.1637
2024-05-09T01:52:46.277Z,10.1690
2024-05-09T01:53:46.505Z,10.1663
2024-05-09T01:54:46.697Z,10.1717
2024-05-09T01:55:46.979Z,10.1829
2024-05-09T01:56:47.337Z,10.1855
2024-05-09T01:57:47.599Z,10.1994
2024-05-09T01:58:47.781Z,10.1909
2024-05-09T01:59:48.008Z,10.1962
2024-05-09T02:00:48.319Z,10.1941
2024-05-09T02:01:56.632Z,10.1888
2024-05-09T02:02:54.946Z,10.1797
2024-05-09T02:03:55.412Z,10.1909
2024-05-09T02:04:56.158Z,10.1850
2024-05-09T02:05:56.517Z,10.2021
2024-05-09T02:06:57.132Z,10.2053
2024-05-09T02:07:57.392Z,10.2053
2024-05-09T02:08:57.546Z,10.1962
2024-05-09T02:09:58.110Z,10.1994
2024-05-09T02:10:58.532Z,10.1882
2024-05-09T02:11:59.086Z,10.1877
2024-05-09T02:12:59.334Z,10.2053
2024-05-09T02:13:59.700Z,10.1888
2024-05-09T02:14:59.934Z,10.1968
2024-05-09T02:16:00.217Z,10.1962
2024-05-09T02:17:00.556Z,10.2048
2024-05-09T02:18:01.121Z,10.1823
2024-05-09T02:19:01.739Z,10.1936
2024-05-09T02:20:02.115Z,10.2021
2024-05-09T02:21:02.720Z,10.1850
2024-05-09T02:22:02.950Z,10.1994
2024-05-09T02:23:03.305Z,10.2106
2024-05-09T02:24:03.627Z,10.1994
2024-05-09T02:25:03.841Z,10.2304
2024-05-09T02:26:04.497Z,10.2080
2024-05-09T02:27:04.741Z,10.2160
2024-05-09T02:28:05.080Z,10.2000
2024-05-09T02:29:05.393Z,10.2165
2024-05-09T02:30:15.150Z,10.2251
2024-05-09T02:31:13.510Z,10.2139
2024-05-09T02:32:14.104Z,10.2187
2024-05-09T02:33:15.002Z,10.2048
2024-05-09T02:34:16.310Z,10.2304
2024-05-09T02:35:16.604Z,10.2277
2024-05-09T02:36:16.771Z,10.2219
2024-05-09T02:37:16.937Z,10.2139
2024-05-09T02:38:18.221Z,10.2299
2024-05-09T02:39:18.438Z,10.2026
2024-05-09T02:40:25.665Z,10.2165
2024-05-09T02:41:25.977Z,10.2080
2024-05-09T02:42:27.204Z,10.2074
2024-05-09T02:43:27.464Z,10.2053
2024-05-09T02:44:27.763Z,10.2112
2024-05-09T02:45:28.065Z,10.2106
2024-05-09T02:46:28.287Z,10.1909
2024-05-09T02:47:28.808Z,10.1962
2024-05-09T02:48:29.149Z,10.2171
2024-05-09T02:49:29.573Z,10.2053
2024-05-09T02:50:37.036Z,10.2058
2024-05-09T02:51:36.306Z,10.2021
2024-05-09T02:52:36.596Z,10.1936
2024-05-09T02:53:36.903Z,10.1855
2024-05-09T02:54:37.241Z,10.1770
2024-05-09T02:55:37.533Z,10.2021
2024-05-09T02:56:37.991Z,10.1909
2024-05-09T02:57:38.413Z,10.1770
2024-05-09T02:58:38.795Z,10.1551
2024-05-09T02:59:39.078Z,10.1637
2024-05-09T03:00:41.666Z,10.1823
2024-05-09T03:01:45.743Z,10.1514
2024-05-09T03:02:46.164Z,10.1540
2024-05-09T03:03:46.559Z,10.1460
2024-05-09T03:04:47.024Z,10.1380
2024-05-09T03:05:47.495Z,10.1263
2024-05-09T03:06:47.945Z,10.1460
2024-05-09T03:07:48.124Z,10.1375
2024-05-09T03:08:48.420Z,10.1209
2024-05-09T03:09:48.606Z,10.1124
2024-05-09T03:10:49.097Z,10.1236
2024-05-09T03:11:49.510Z,10.1151
2024-05-09T03:12:49.814Z,10.1263
2024-05-09T03:13:50.024Z,10.1321
2024-05-09T03:14:50.297Z,10.1289
2024-05-09T03:15:50.722Z,10.1348
2024-05-09T03:16:51.066Z,10.1412
2024-05-09T03:17:51.696Z,10.1637
2024-05-09T03:18:52.075Z,10.1129
2024-05-09T03:19:52.413Z,10.1183
2024-05-09T03:20:52.766Z,10.1236
2024-05-09T03:21:52.943Z,10.1460
2024-05-09T03:22:56.323Z,10.1439
2024-05-09T03:23:57.513Z,10.1583
2024-05-09T03:24:57.731Z,10.1637
2024-05-09T03:25:58.057Z,10.1690
2024-05-09T03:26:58.441Z,10.1604
2024-05-09T03:27:58.686Z,10.1551
2024-05-09T03:28:58.969Z,10.1434
2024-05-09T03:29:59.157Z,10.1909
2024-05-09T03:30:59.321Z,10.1637
2024-05-09T03:31:59.732Z,10.1546
2024-05-09T03:33:00.341Z,10.1637
2024-05-09T03:34:00.827Z,10.1546
2024-05-09T03:35:01.087Z,10.2053
2024-05-09T03:36:01.249Z,10.1743
2024-05-09T03:37:01.531Z,10.1855
2024-05-09T03:38:01.777Z,10.1882
2024-05-09T03:39:02.097Z,10.1968
2024-05-09T03:40:02.875Z,10.1717
2024-05-09T03:41:03.271Z,10.1685
2024-05-09T03:42:03.612Z,10.1797
2024-05-09T03:43:03.830Z,10.1770
2024-05-09T03:44:04.083Z,10.1797
2024-05-09T03:45:04.328Z,10.1994
2024-05-09T03:46:04.515Z,10.1909
2024-05-09T03:47:04.785Z,10.1631
2024-05-09T03:48:05.522Z,10.1904
2024-05-09T03:49:05.893Z,10.2085
2024-05-09T03:50:11.962Z,10.2026
2024-05-09T03:51:12.509Z,10.2251
2024-05-09T03:52:12.809Z,10.2358
2024-05-09T03:53:13.184Z,10.2358
2024-05-09T03:54:13.528Z,10.2240
2024-05-09T03:55:13.725Z,10.2053
2024-05-09T03:56:14.020Z,10.2304
2024-05-09T03:57:14.213Z,10.2106
2024-05-09T03:58:14.564Z,10.1968
2024-05-09T03:59:14.896Z,10.2192
2024-05-09T04:00:21.950Z,10.2171
2024-05-09T04:01:21.414Z,10.2245
2024-05-09T04:02:21.811Z,10.2277
2024-05-09T04:03:22.565Z,10.2197
2024-05-09T04:04:22.959Z,10.2245
2024-05-09T04:05:23.192Z,10.2192
2024-05-09T04:06:23.418Z,10.2101
2024-05-09T04:07:23.631Z,10.1936
2024-05-09T04:08:23.901Z,10.2160
2024-05-09T04:09:24.166Z,10.2139
2024-05-09T04:10:31.181Z,10.2251
2024-05-09T04:11:30.467Z,10.2277
2024-05-09T04:12:30.844Z,10.2245
2024-05-09T04:13:31.020Z,10.2438
2024-05-09T04:14:31.319Z,10.2411
2024-05-09T04:15:31.866Z,10.2699
2024-05-09T04:16:32.344Z,10.2924
2024-05-09T04:17:33.006Z,10.2502
2024-05-09T04:18:33.451Z,10.2411
2024-05-09T04:19:33.722Z,10.2470
2024-05-09T04:20:39.007Z,10.2699
2024-05-09T04:21:40.760Z,10.2753
2024-05-09T04:22:52.957Z,10.2389
2024-05-09T04:23:53.162Z,10.2304
2024-05-09T04:24:53.295Z,10.2443
2024-05-09T04:26:05.285Z,10.2767
2024-05-09T04:27:05.389Z,10.2470
2024-05-09T04:28:17.367Z,10.2553
2024-05-09T04:29:17.494Z,10.2753
2024-05-09T04:30:26.221Z,10.2753
2024-05-09T04:31:24.540Z,10.2785
2024-05-09T04:32:25.467Z,10.2817
2024-05-09T04:33:25.802Z,10.2865
2024-05-09T04:34:26.121Z,10.2865
2024-05-09T04:35:26.372Z,10.2950
2024-05-09T04:36:26.568Z,10.3062
2024-05-09T04:37:26.670Z,10.3388
2024-05-09T04:38:26.672Z,10.3201
2024-05-09T04:39:26.817Z,10.3340
2024-05-09T04:40:33.396Z,10.3319
2024-05-09T04:41:34.028Z,10.3228
2024-05-09T04:42:34.175Z,10.3340
2024-05-09T04:43:34.337Z,10.3121
2024-05-09T04:44:34.607Z,10.3532
2024-05-09T04:45:35.072Z,10.3260
2024-05-09T04:46:35.479Z,10.3287
2024-05-09T04:47:35.861Z,10.3484
2024-05-09T04:48:36.221Z,10.3260
2024-05-09T04:49:37.504Z,10.3532
2024-05-09T04:50:39.307Z,10.3452
2024-05-09T04:51:40.356Z,10.3607
2024-05-09T04:52:40.510Z,10.3340
2024-05-09T04:53:40.936Z,10.3559
2024-05-09T04:54:41.258Z,10.3586
2024-05-09T04:55:41.438Z,10.3778
2024-05-09T04:56:41.562Z,10.3751
2024-05-09T04:57:41.754Z,10.3591
2024-05-09T04:58:42.128Z,10.3864
2024-05-09T04:59:42.284Z,10.3896
2024-05-09T05:00:42.613Z,10.3981
2024-05-09T05:01:42.779Z,10.4040
2024-05-09T05:02:43.229Z,10.4093
2024-05-09T05:03:43.596Z,10.4264
2024-05-09T05:04:43.985Z,10.4040
2024-05-09T05:05:45.441Z,10.4200
2024-05-09T05:06:46.348Z,10.4034
2024-05-09T05:07:46.504Z,10.4371
2024-05-09T05:08:46.718Z,10.4430
2024-05-09T05:09:46.847Z,10.4424
2024-05-09T05:10:47.710Z,10.4456
2024-05-09T05:11:48.619Z,10.4478
2024-05-09T05:12:48.763Z,10.4654
2024-05-09T05:13:48.852Z,10.4488
2024-05-09T05:14:49.511Z,10.4398
2024-05-09T05:15:50.536Z,10.4398
2024-05-09T05:16:50.568Z,10.4654
2024-05-09T05:18:02.753Z,10.4810
2024-05-09T05:19:02.946Z,10.4852
2024-05-09T05:20:04.707Z,10.4766
2024-05-09T05:21:05.032Z,10.4761
2024-05-09T05:22:05.129Z,10.4841
2024-05-09T05:23:05.205Z,10.5076
2024-05-09T05:24:05.285Z,10.5396
2024-05-09T05:25:05.361Z,10.5247
2024-05-09T05:26:17.309Z,10.5406
2024-05-09T05:27:17.330Z,10.5594
2024-05-09T05:28:29.270Z,10.5673
2024-05-09T05:29:29.398Z,10.5690
2024-05-09T05:30:34.443Z,10.5776
2024-05-09T05:31:36.467Z,10.5856
2024-05-09T05:32:36.583Z,10.5962
2024-05-09T05:33:36.944Z,10.5685
2024-05-09T05:34:37.044Z,10.5909
2024-05-09T05:35:37.196Z,10.6043
2024-05-09T05:36:37.299Z,10.6016
2024-05-09T05:37:37.374Z,10.6246
2024-05-09T05:38:37.523Z,10.6149
2024-05-09T05:39:37.532Z,10.6550
2024-05-09T05:40:38.764Z,10.6213
2024-05-09T05:41:40.077Z,10.6555
2024-05-09T05:42:40.131Z,10.6304
2024-05-09T05:43:40.315Z,10.6438
2024-05-09T05:44:40.452Z,10.6491
2024-05-09T05:45:40.562Z,10.6913
2024-05-09T05:46:41.659Z,10.6972
2024-05-09T05:47:42.139Z,10.6967
2024-05-09T05:48:42.495Z,10.7223
2024-05-09T05:49:42.683Z,10.7137
2024-05-09T05:50:42.855Z,10.7169
2024-05-09T05:51:43.176Z,10.7223
2024-05-09T05:52:43.440Z,10.7025
2024-05-09T05:53:43.555Z,10.6716
2024-05-09T05:54:43.705Z,10.7057
2024-05-09T05:55:43.890Z,10.7025
2024-05-09T05:56:44.141Z,10.6828
2024-05-09T05:57:44.367Z,10.6603
2024-05-09T05:58:44.575Z,10.6854
2024-05-09T05:59:44.800Z,10.6694
2024-05-09T06:00:45.044Z,10.6742
2024-05-09T06:01:45.472Z,10.7169
2024-05-09T06:02:45.868Z,10.7479
2024-05-09T06:03:47.335Z,10.7031
2024-05-09T06:04:47.646Z,10.7111
2024-05-09T06:05:47.866Z,10.7330
2024-05-09T06:06:48.115Z,10.7111
2024-05-09T06:07:49.287Z,10.7474
2024-05-09T06:08:49.388Z,10.7591
2024-05-09T06:09:50.652Z,10.8035
2024-05-09T06:10:50.805Z,10.8179
2024-05-09T06:11:52.151Z,10.8323
2024-05-09T06:12:52.130Z,10.8766
2024-05-09T06:13:52.236Z,10.8622
2024-05-09T06:14:52.407Z,10.9370
2024-05-09T06:15:52.454Z,10.9632
2024-05-09T06:16:54.102Z,10.9455
2024-05-09T06:17:55.752Z,10.9829
2024-05-09T06:18:56.567Z,11.0411
2024-05-09T06:19:56.615Z,11.0443
2024-05-09T06:20:56.851Z,11.0326
2024-05-09T06:21:56.919Z,11.0753
2024-05-09T06:22:56.926Z,11.0887
2024-05-09T06:23:56.984Z,11.0838
2024-05-09T06:25:08.814Z,11.1695
2024-05-09T06:26:20.716Z,11.1708
2024-05-09T06:27:32.577Z,11.2710
2024-05-09T06:28:32.560Z,11.3311
2024-05-09T06:29:44.384Z,11.3573
2024-05-09T06:30:44.341Z,11.4433
2024-05-09T06:31:59.495Z,11.4699
2024-05-09T06:33:00.366Z,11.4662
2024-05-09T06:34:12.536Z,11.5046
2024-05-09T06:35:12.602Z,11.5640
2024-05-09T06:36:13.521Z,11.5843
2024-05-09T06:37:25.362Z,11.6096
2024-05-09T06:38:37.268Z,11.6466
2024-05-09T06:39:37.183Z,11.6649
2024-05-09T06:40:49.034Z,11.7213
2024-05-09T06:42:00.823Z,11.7587
2024-05-09T06:43:12.682Z,11.7730
2024-05-09T06:44:12.695Z,11.7600
2024-05-09T06:45:12.716Z,11.8187
2024-05-09T06:46:24.525Z,11.7240
2024-05-09T06:47:36.534Z,11.6194
2024-05-09T06:48:36.767Z,11.6233
2024-05-09T06:49:36.815Z,11.6735
2024-05-09T06:50:38.347Z,11.7343
2024-05-09T06:51:39.594Z,11.8022
2024-05-09T06:52:41.517Z,11.9725
2024-05-09T06:53:41.486Z,12.0201
2024-05-09T06:54:41.577Z,11.9811
2024-05-09T06:55:41.428Z,12.0062
2024-05-09T06:56:53.211Z,12.0178
2024-05-09T06:58:04.938Z,12.0333
2024-05-09T06:59:16.743Z,12.0178
2024-05-09T07:00:35.599Z,12.0516
2024-05-09T07:01:35.287Z,12.0633
2024-05-09T07:02:47.066Z,12.1143
2024-05-09T07:03:47.135Z,12.1514
2024-05-09T07:04:47.241Z,12.1344
2024-05-09T07:05:48.569Z,12.0772
2024-05-09T07:06:50.937Z,12.0564
2024-05-09T07:07:50.923Z,11.9619
2024-05-09T07:08:52.448Z,11.9699
2024-05-09T07:09:52.626Z,11.9976
2024-05-09T07:10:52.784Z,11.9982
2024-05-09T07:11:52.984Z,11.9394
2024-05-09T07:12:53.234Z,11.9052
2024-05-09T07:13:53.207Z,11.9170
2024-05-09T07:14:53.583Z,11.8630
2024-05-09T07:15:53.516Z,11.8748
2024-05-09T07:17:05.404Z,11.8940
2024-05-09T07:18:05.497Z,11.8999
2024-05-09T07:19:05.686Z,11.8609
2024-05-09T07:20:08.963Z,11.8385
2024-05-09T07:21:09.366Z,11.7739
2024-05-09T07:22:21.156Z,11.8010
2024-05-09T07:23:32.905Z,11.9221
2024-05-09T07:24:44.778Z,11.9390
2024-05-09T07:25:56.587Z,11.9853
2024-05-09T07:27:08.266Z,12.0200
2024-05-09T07:28:19.960Z,12.1366
2024-05-09T07:29:32.989Z,12.1793
2024-05-09T07:30:35.171Z,12.2166
2024-05-09T07:31:35.215Z,12.2631
2024-05-09T07:32:47.096Z,12.2772
2024-05-09T07:33:47.148Z,12.2802
2024-05-09T07:34:47.192Z,12.3133
2024-05-09T07:35:58.933Z,12.3053
2024-05-09T07:37:10.643Z,12.2514
2024-05-09T07:38:22.512Z,12.2073
2024-05-09T07:39:22.670Z,12.2657
2024-05-09T07:40:36.644Z,12.2839
2024-05-09T07:41:37.486Z,12.2438
2024-05-09T07:42:37.541Z,12.2524
2024-05-09T07:43:50.276Z,12.3075
2024-05-09T07:44:51.277Z,12.2716
2024-05-09T07:46:48.234Z,12.3404
2024-05-09T07:48:14.696Z,12.3416
2024-05-09T07:49:45.087Z,12.3410
2024-05-09T07:53:08.679Z,12.2802
2024-05-09T07:53:33.658Z,12.2524
2024-05-09T07:53:47.320Z,12.2300
2024-05-09T07:54:49.818Z,12.2300
2024-05-09T07:55:51.072Z,12.2300
2024-05-09T07:56:51.221Z,12.1082
2024-05-09T07:57:51.609Z,12.1712
2024-05-09T07:58:52.172Z,12.2882
2024-05-09T07:59:52.294Z,12.3106
2024-05-09T08:00:52.379Z,12.3389
2024-05-09T08:01:52.464Z,12.3079
2024-05-09T08:02:52.730Z,12.2860
2024-05-09T08:03:53.090Z,12.3661
2024-05-09T08:04:53.295Z,12.3779
2024-05-09T08:05:54.453Z,12.4089
2024-05-09T08:06:54.568Z,12.4313
2024-05-09T08:07:55.583Z,12.5157
2024-05-09T08:09:11.116Z,12.4610
2024-05-09T08:10:15.471Z,12.5242
2024-05-09T08:11:18.933Z,12.6492
2024-05-09T08:12:30.847Z,12.6057
2024-05-09T08:13:42.585Z,12.4819
2024-05-09T08:14:56.198Z,12.6284
2024-05-09T08:16:07.972Z,12.5892
2024-05-09T08:17:19.800Z,12.5937
2024-05-09T08:18:31.883Z,12.5127
2024-05-09T08:19:32.006Z,12.6326
2024-05-09T08:20:43.727Z,12.6426
2024-05-09T08:21:55.540Z,12.6502
2024-05-09T08:23:07.336Z,12.6569
2024-05-09T08:24:19.128Z,12.6431
2024-05-09T08:25:30.916Z,12.6244
2024-05-09T08:26:42.682Z,12.5803
2024-05-09T08:27:54.452Z,12.5127
2024-05-09T08:28:54.505Z,12.4730
2024-05-09T08:31:17.970Z,12.5496
2024-05-09T08:32:29.938Z,12.5296
2024-05-09T08:33:31.236Z,12.5376
2024-05-09T08:34:31.216Z,12.5013
2024-05-09T08:35:31.293Z,12.5290
2024-05-09T08:36:43.163Z,12.4842
2024-05-09T08:37:43.278Z,12.4900
2024-05-09T08:38:43.386Z,12.4596
2024-05-09T08:39:43.369Z,12.4900
2024-05-09T08:40:43.433Z,12.5766
2024-05-09T08:41:44.359Z,12.6471
2024-05-09T08:42:56.166Z,12.6795
2024-05-09T08:44:07.884Z,12.7525
2024-05-09T08:45:19.617Z,12.8229
2024-05-09T08:46:31.361Z,12.9221
2024-05-09T08:47:31.787Z,13.0129
2024-05-09T08:48:33.095Z,13.1250
2024-05-09T08:49:33.263Z,13.1811
2024-05-09T08:50:38.535Z,13.2393
2024-05-09T08:51:41.058Z,13.1528
2024-05-09T08:52:41.093Z,13.2174
2024-05-09T08:53:41.052Z,13.1817
2024-05-09T08:54:52.846Z,13.1811
2024-05-09T08:56:04.670Z,13.2052
2024-05-09T08:57:16.523Z,13.1771
2024-05-09T08:58:16.797Z,13.2260
2024-05-09T08:59:16.831Z,13.3285
2024-05-09T09:00:35.948Z,13.4820
2024-05-09T09:01:34.398Z,13.5219
2024-05-09T09:02:34.694Z,13.4188
2024-05-09T09:03:34.815Z,13.3910
2024-05-09T09:04:34.955Z,13.3937
2024-05-09T09:05:46.750Z,13.4037
2024-05-09T09:06:59.767Z,13.4081
2024-05-09T09:08:00.294Z,13.3184
2024-05-09T09:09:12.302Z,13.1771
2024-05-09T09:10:29.884Z,13.0961
2024-05-09T09:11:31.614Z,12.9846
2024-05-09T09:12:31.620Z,12.9819
2024-05-09T09:13:43.437Z,12.9817
2024-05-09T09:14:55.183Z,12.8620
2024-05-09T09:16:07.045Z,12.8909
2024-05-09T09:17:07.003Z,12.9873
2024-05-09T09:18:19.272Z,13.0018
2024-05-09T09:19:19.432Z,13.0631
2024-05-09T09:20:26.269Z,13.0722
2024-05-09T09:21:25.286Z,13.1106
2024-05-09T09:22:38.094Z,13.1215
2024-05-09T09:23:38.037Z,13.1389
2024-05-09T09:24:49.895Z,13.2025
2024-05-09T09:26:01.751Z,13.2537
2024-05-09T09:27:13.606Z,13.3218
2024-05-09T09:28:25.427Z,13.4081
2024-05-09T09:29:37.211Z,13.5786
2024-05-09T09:30:48.973Z,13.5950
2024-05-09T09:32:00.701Z,13.6872
2024-05-09T09:33:12.550Z,13.7664
2024-05-09T09:34:24.642Z,13.7993
2024-05-09T09:35:24.556Z,13.7312
2024-05-09T09:36:36.292Z,13.7032
2024-05-09T09:37:47.984Z,13.7343
2024-05-09T09:38:59.758Z,13.7058
2024-05-09T09:40:13.311Z,13.6515
2024-05-09T09:41:13.609Z,13.6917
2024-05-09T09:42:25.299Z,13.6458
2024-05-09T09:43:37.110Z,13.7615
2024-05-09T09:44:57.794Z,13.7882
2024-05-09T09:45:54.712Z,13.8658
2024-05-09T09:47:07.120Z,13.8563
2024-05-09T09:48:07.036Z,13.7510
2024-05-09T09:49:19.826Z,13.8861
2024-05-09T09:50:34.572Z,13.8954
2024-05-09T09:51:35.447Z,13.9496
2024-05-09T09:52:35.395Z,14.0143
2024-05-09T09:53:47.208Z,14.0583
2024-05-09T09:54:58.994Z,14.0566
2024-05-09T09:55:58.975Z,14.1601
2024-05-09T09:57:10.636Z,14.2822
2024-05-09T09:58:22.395Z,14.3596
2024-05-09T09:59:34.177Z,14.2315
2024-05-09T10:00:46.328Z,14.3009
2024-05-09T10:01:46.338Z,14.4004
2024-05-09T10:02:58.084Z,14.5150
2024-05-09T10:04:09.812Z,14.5078
2024-05-09T10:05:21.754Z,14.6765
2024-05-09T10:06:21.670Z,14.6717
2024-05-09T10:07:22.508Z,14.7353
2024-05-09T10:08:34.164Z,14.6543
2024-05-09T10:09:45.895Z,14.8140
2024-05-09T10:10:58.668Z,14.9168
2024-05-09T10:12:10.402Z,14.7864
2024-05-09T10:13:22.054Z,14.8323
2024-05-09T10:14:33.702Z,15.0704
2024-05-09T10:15:34.580Z,15.1609
2024-05-09T10:16:46.198Z,15.2226
2024-05-09T10:17:57.908Z,15.1914
2024-05-09T10:19:09.671Z,15.3388
2024-05-09T10:20:27.715Z,15.2012
2024-05-09T10:21:27.923Z,15.2127
2024-05-09T10:22:39.529Z,15.3058
2024-05-09T10:23:51.209Z,15.2773
2024-05-09T10:25:04.821Z,15.3218
2024-05-09T10:26:05.922Z,15.5999
2024-05-09T10:27:06.127Z,15.6052
2024-05-09T10:28:17.788Z,15.4527
2024-05-09T10:29:18.797Z,15.3703
2024-05-09T10:30:35.801Z,15.5533
2024-05-09T10:31:36.246Z,15.5914
2024-05-09T10:32:47.959Z,15.6467
2024-05-09T10:33:59.995Z,15.6263
2024-05-09T10:35:00.082Z,15.5048
2024-05-09T10:36:00.009Z,15.3169
2024-05-09T10:37:11.623Z,15.5960
2024-05-09T10:38:23.202Z,15.5671
2024-05-09T10:39:34.940Z,15.3948
2024-05-09T10:40:46.526Z,15.1621
2024-05-09T10:41:58.189Z,14.8821
2024-05-09T10:43:09.838Z,14.8701
2024-05-09T10:44:21.359Z,14.7045
2024-05-09T10:45:32.957Z,14.7188
2024-05-09T10:46:44.553Z,14.8585
2024-05-09T10:47:56.377Z,14.7633
2024-05-09T10:49:08.186Z,14.6859
2024-05-09T10:50:25.552Z,14.6534
2024-05-09T10:51:25.773Z,14.7160
2024-05-09T10:52:37.352Z,14.7366
2024-05-09T10:53:48.954Z,14.7789
2024-05-09T10:55:01.694Z,14.9751
2024-05-09T10:56:04.041Z,14.9820
2024-05-09T10:57:15.591Z,14.9725
2024-05-09T10:58:27.238Z,15.0962
2024-05-09T10:59:38.950Z,15.2671
2024-05-09T11:00:50.582Z,15.2511
2024-05-09T11:02:02.415Z,15.3241
2024-05-09T11:03:14.043Z,15.3000
2024-05-09T11:04:25.714Z,15.3975
2024-05-09T11:05:37.563Z,15.7375
2024-05-09T11:06:37.498Z,15.7115
2024-05-09T11:07:37.447Z,15.8653
2024-05-09T11:08:49.055Z,15.9293
2024-05-09T11:10:00.801Z,16.0028
2024-05-09T11:11:12.463Z,16.0166
2024-05-09T11:12:24.987Z,16.2600
2024-05-09T11:13:24.984Z,16.3684
2024-05-09T11:14:36.570Z,16.1594
2024-05-09T11:15:48.213Z,16.1056
2024-05-09T11:16:59.970Z,15.9988
2024-05-09T11:18:11.792Z,15.9342
2024-05-09T11:19:11.787Z,15.8178
2024-05-09T11:20:29.444Z,15.7611
2024-05-09T11:21:29.312Z,15.8013
2024-05-09T11:22:41.627Z,16.0847
2024-05-09T11:23:41.834Z,16.7877
2024-05-09T11:24:41.703Z,17.2758
2024-05-09T11:25:53.390Z,16.9801
2024-05-09T11:27:05.031Z,16.9997
2024-05-09T11:28:16.833Z,16.7692
2024-05-09T11:29:19.236Z,16.7615
2024-05-09T11:30:26.559Z,16.3401
2024-05-09T11:31:25.450Z,15.8968
2024-05-09T11:32:25.528Z,15.9326
2024-05-09T11:33:25.492Z,16.0886
2024-05-09T11:34:37.095Z,15.8911
2024-05-09T11:35:48.713Z,15.6699
2024-05-09T11:37:00.433Z,15.6352
2024-05-09T11:38:12.088Z,15.6725
2024-05-09T11:39:23.907Z,15.7442
2024-05-09T11:40:25.998Z,15.7003
2024-05-09T11:41:29.323Z,15.7308
2024-05-09T11:42:40.873Z,15.9195
2024-05-09T11:43:52.617Z,16.1056
2024-05-09T11:45:04.147Z,16.2836
2024-05-09T11:46:15.903Z,16.3045
2024-05-09T11:47:27.588Z,15.9738
2024-05-09T11:48:39.380Z,15.9903
2024-05-09T11:49:39.416Z,15.9139
2024-05-09T11:50:51.064Z,16.0232
2024-05-09T11:52:02.710Z,16.0682
2024-05-09T11:53:14.265Z,15.8946
2024-05-09T11:54:25.821Z,15.5973
2024-05-09T11:55:37.334Z,15.5230
2024-05-09T11:56:48.986Z,15.5328
2024-05-09T11:58:00.611Z,15.4834
2024-05-09T11:59:12.271Z,15.5395
2024-05-09T12:00:33.564Z,15.4932
2024-05-09T12:01:29.938Z,15.5380
2024-05-09T12:02:29.909Z,15.5219
2024-05-09T12:03:41.682Z,15.6209
2024-05-09T12:04:53.424Z,15.7046
2024-05-09T12:05:53.325Z,15.7345
2024-05-09T12:07:05.043Z,15.6725
2024-05-09T12:08:16.684Z,15.7985
2024-05-09T12:09:28.395Z,15.9431
2024-05-09T12:10:40.127Z,16.0468
2024-05-09T12:11:51.919Z,16.3090
2024-05-09T12:13:05.549Z,16.3370
2024-05-09T12:14:06.909Z,16.2600
2024-05-09T12:15:18.578Z,16.1456
2024-05-09T12:16:30.337Z,16.1412
2024-05-09T12:17:31.228Z,16.1425
2024-05-09T12:18:31.178Z,16.0491
2024-05-09T12:19:42.831Z,16.1100
2024-05-09T12:20:54.622Z,16.3602
2024-05-09T12:22:06.286Z,16.2925
2024-05-09T12:23:17.883Z,16.0273
2024-05-09T12:24:29.508Z,16.1496
2024-05-09T12:25:41.237Z,16.2395
2024-05-09T12:26:52.945Z,16.2373
2024-05-09T12:28:04.647Z,16.3490
2024-05-09T12:29:16.280Z,16.0869
2024-05-09T12:30:35.760Z,16.4091
2024-05-09T12:31:34.349Z,16.5372
2024-05-09T12:32:46.531Z,16.6307
2024-05-09T12:33:46.541Z,16.6777
2024-05-09T12:34:46.427Z,17.4259
2024-05-09T12:35:58.158Z,17.6352
2024-05-09T12:37:10.176Z,17.5654
2024-05-09T12:38:10.127Z,17.2614
2024-05-09T12:39:21.784Z,17.0135
2024-05-09T12:40:36.971Z,17.1203
2024-05-09T12:41:39.271Z,17.2779
2024-05-09T12:42:40.002Z,17.1743
2024-05-09T12:43:51.569Z,17.1532
2024-05-09T12:45:03.199Z,17.2814
2024-05-09T12:46:14.923Z,17.1857
2024-05-09T12:47:15.192Z,17.3677
2024-05-09T12:48:27.156Z,17.5841
2024-05-09T12:49:27.164Z,17.4542
2024-05-09T12:50:32.214Z,17.2667
2024-05-09T12:51:33.327Z,17.0964
2024-05-09T12:52:45.096Z,17.0389
2024-05-09T12:53:45.942Z,16.9703
2024-05-09T12:54:57.703Z,16.8996
2024-05-09T12:56:01.843Z,16.8608
2024-05-09T12:57:03.485Z,16.8747
2024-05-09T12:58:15.485Z,16.8110
2024-05-09T12:59:15.451Z,16.8550
2024-05-09T13:00:31.585Z,16.9151
2024-05-09T13:01:32.921Z,16.8913